Saturday, February 24, 2018, 12:04 PM CST
Back to Local

KPWK, Chicago Executive Airport

Location: Wheeling, IL, United States Lat: 42.117
Local Time: 12:04 PM CST (18:04 GMT) Lon: -87.9
Time Zone: US/Central Elev: 646 ft

Show me the last for .
Show Decoded

2018-02-24 11:52 METAR KPWK 241752Z 07012G16KT 10SM OVC014 03/00 A3006 RMK AO2 SLP186 T00330000
                 10033 20017 58040 =
2018-02-24 11:41 METAR KPWK 241741Z 09009G15KT 10SM BKN014 OVC019 03/00 A3008 RMK AO2 T00330000 =
2018-02-24 10:52 METAR KPWK 241652Z 07009KT 10SM BKN016 OVC090 03/M01 A3013 RMK AO2 SLP207
                 T00281006 =
2018-02-24 09:52 METAR KPWK 241552Z 07009G15KT 10SM OVC100 02/M01 A3015 RMK AO2 SLP216 T00221011
                 =
2018-02-24 08:52 METAR KPWK 241452Z 09008KT 9SM OVC100 02/M01 A3018 RMK AO2 SLP226 T00171011
                 58006 =
2018-02-24 08:33 METAR KPWK 241433Z 08007KT 9SM SCT018 OVC100 02/M01 A3018 RMK AO2 T00171011 =
2018-02-24 07:52 METAR KPWK 241352Z 09008KT 9SM OVC019 02/M02 A3019 RMK AO2 SLP229 T00171017 =
2018-02-24 06:52 METAR KPWK 241252Z 07009KT 9SM OVC017 02/M01 A3019 RMK AO2 SLP230 T00171011 =
2018-02-24 05:52 METAR KPWK 241152Z AUTO 06007KT 10SM OVC020 02/M01 A3020 RMK AO2 SLP232 70001
                 T00171011 10017 20000 56018 =
2018-02-24 04:52 METAR KPWK 241052Z AUTO 05006KT 10SM OVC017 01/M01 A3021 RMK AO2 SLP237
                 T00111011 =
2018-02-24 04:36 METAR KPWK 241036Z AUTO 05008KT 10SM OVC015 01/M01 A3022 RMK AO2 T00111011 =
2018-02-24 04:12 METAR KPWK 241012Z AUTO 05006KT 10SM BKN014 BKN022 01/M01 A3023 RMK AO2
                 T00061011 =
2018-02-24 04:05 METAR KPWK 241005Z AUTO 04006KT 10SM SCT014 BKN022 01/M01 A3023 RMK AO2
                 T00061011 =
2018-02-24 03:52 METAR KPWK 240952Z AUTO 03007KT 10SM FEW012 SCT020 01/M01 A3023 RMK AO2 SLP242
                 T00061011 =
2018-02-24 02:52 METAR KPWK 240852Z AUTO 03006KT 10SM CLR 01/M02 A3025 RMK AO2 SLP250 T00061017
                 55009 =
2018-02-24 01:52 METAR KPWK 240752Z AUTO 36007KT 9SM CLR 01/M02 A3024 RMK AO2 SLP245 T00061017 =
2018-02-24 00:52 METAR KPWK 240652Z AUTO 34005KT 8SM CLR 00/M02 A3026 RMK AO2 SLP252 T00001017 =
2018-02-23 23:52 METAR KPWK 240552Z AUTO 30003KT 9SM CLR 01/M02 A3028 RMK AO2 SLP260 T00061017
                 10044 20006 400720006 51004 =
2018-02-23 22:52 METAR KPWK 240452Z AUTO 00000KT 9SM CLR 01/M01 A3028 RMK AO2 SLP259 T00111011 =
2018-02-23 21:52 METAR KPWK 240352Z 31005KT 10SM CLR 02/M01 A3027 RMK AO2 SLP257 T00171011 =
2018-02-23 20:52 METAR KPWK 240252Z 30007KT 10SM FEW018 02/M01 A3027 RMK AO2 SLP254 T00221006
                 51009 =
2018-02-23 19:52 METAR KPWK 240152Z 25004KT 10SM FEW019 03/01 A3026 RMK AO2 SLP253 T00330006 =
2018-02-23 18:52 METAR KPWK 240052Z VRB04KT 10SM SCT021 04/01 A3026 RMK AO2 SLP251 T00390006 =
2018-02-23 17:52 METAR KPWK 232352Z 26005KT 10SM OVC019 04/01 A3024 RMK AO2 SLP245 T00390006
                 10050 20039 51011 =
2018-02-23 16:52 METAR KPWK 232252Z 26009KT 10SM OVC016 04/01 A3023 RMK AO2 SLP241 T00390006 =
2018-02-23 16:09 METAR KPWK 232209Z 27009KT 10SM OVC015 04/01 A3023 RMK AO2 T00390006 =
2018-02-23 15:52 METAR KPWK 232152Z 25010KT 10SM OVC013 04/01 A3022 RMK AO2 SLP238 T00390011 =
2018-02-23 14:52 METAR KPWK 232052Z 25007KT 10SM OVC011 04/02 A3021 RMK AO2 SLP234 T00390017
                 53014 =
2018-02-23 13:52 METAR KPWK 231952Z 27009KT 10SM OVC011 04/02 A3018 RMK AO2 SLP223 T00440022 =
2018-02-23 13:05 METAR KPWK 231905Z 28010G17KT 10SM OVC010 05/03 A3017 RMK AO2 T00500028 =
2018-02-23 12:52 METAR KPWK 231852Z 27013G20KT 10SM OVC009 05/03 A3017 RMK AO2 CIG 008V012 SLP220
                 T00500028 =

Support USWX by starting your Amazon purchase here.